Time;durP1;ratioP1;P1;durP2;ratioP2;P2;SDS_P1;SDS_P2;PMS_P1;PMS_P2;Temp;Humidity;BMP_temperature;BMP_pressure;BME280_temperature;BME280_humidity;BME280_pressure;Samples;Min_cycle;Max_cycle;Signal;HPM_P1;HPM_P2
2021/08/07 00:00:05;;;;;;;1.83;1.47;;;15.20;99.90;;;;;;6248425;28;20694;-70
2021/08/07 00:03:13;;;;;;;2.03;1.83;;;15.10;99.90;;;;;;6247368;28;20436;-70
2021/08/07 00:06:16;;;;;;;4.77;1.63;;;15.00;99.90;;;;;;6247089;28;20220;-68
2021/08/07 00:09:18;;;;;;;5.10;1.50;;;14.90;99.90;;;;;;6263275;28;20208;-71
2021/08/07 00:12:21;;;;;;;3.93;1.40;;;14.80;99.90;;;;;;6247132;28;20191;-68
2021/08/07 00:15:23;;;;;;;3.77;1.80;;;14.80;99.90;;;;;;6246776;28;20224;-69
2021/08/07 00:18:25;;;;;;;4.50;1.50;;;14.80;99.90;;;;;;6247010;28;20366;-70
2021/08/07 00:21:28;;;;;;;3.10;1.20;;;14.80;99.90;;;;;;6248309;28;20679;-69
2021/08/07 00:24:30;;;;;;;2.73;1.50;;;14.80;99.90;;;;;;6246570;28;20199;-68
2021/08/07 00:27:32;;;;;;;5.93;1.83;;;14.90;99.90;;;;;;6246665;28;20211;-69
2021/08/07 00:30:35;;;;;;;1.70;1.47;;;14.90;99.90;;;;;;6247766;28;20207;-68
2021/08/07 00:33:38;;;;;;;2.23;1.27;;;14.90;99.90;;;;;;6247672;28;20196;-69
2021/08/07 00:36:42;;;;;;;3.33;1.60;;;14.80;99.90;;;;;;6247427;28;20208;-68
2021/08/07 00:39:45;;;;;;;1.50;1.40;;;14.80;99.90;;;;;;6246187;28;20581;-68
2021/08/07 00:42:48;;;;;;;5.60;1.80;;;14.80;99.90;;;;;;6262810;28;20199;-68
2021/08/07 00:45:59;;;;;;;1.93;1.60;;;14.80;99.90;;;;;;6262782;28;20220;-68
2021/08/07 00:49:08;;;;;;;1.33;1.20;;;14.80;99.90;;;;;;6245921;28;20281;-69
2021/08/07 00:52:12;;;;;;;4.00;1.90;;;14.70;99.90;;;;;;6246348;28;20196;-68
2021/08/07 00:55:19;;;;;;;2.13;1.60;;;14.70;99.90;;;;;;6247142;28;20566;-69
2021/08/07 00:58:22;;;;;;;2.83;1.80;;;14.70;99.90;;;;;;6245799;28;20200;-69
2021/08/07 01:01:58;;;;;;;1.77;1.37;;;14.70;99.90;;;;;;6262379;28;20196;-69
2021/08/07 01:05:20;;;;;;;1.63;1.50;;;14.70;99.90;;;;;;6246380;28;20275;-69
2021/08/07 01:08:26;;;;;;;3.40;1.60;;;14.70;99.90;;;;;;6245445;28;20279;-69
2021/08/07 01:11:56;;;;;;;1.53;1.43;;;14.70;99.90;;;;;;6245712;28;20208;-69
2021/08/07 01:15:02;;;;;;;6.23;1.53;;;14.70;99.90;;;;;;6245489;28;20585;-69
2021/08/07 01:18:13;;;;;;;3.37;1.83;;;14.70;99.90;;;;;;6245362;28;20200;-69
2021/08/07 01:21:18;;;;;;;2.20;1.57;;;14.70;99.90;;;;;;6245405;28;20196;-69
2021/08/07 01:24:56;;;;;;;3.37;1.57;;;14.70;99.90;;;;;;6245185;28;20676;-69
2021/08/07 01:28:01;;;;;;;4.30;1.80;;;14.70;99.90;;;;;;6245355;28;20203;-69
2021/08/07 01:31:10;;;;;;;3.40;1.60;;;14.70;99.90;;;;;;6244956;28;20220;-69
2021/08/07 01:34:15;;;;;;;4.13;1.80;;;14.60;99.90;;;;;;6245144;28;20556;-69
2021/08/07 01:37:23;;;;;;;1.43;1.33;;;14.50;99.90;;;;;;6261445;28;20195;-69
2021/08/07 01:40:36;;;;;;;5.47;1.50;;;14.50;99.90;;;;;;6245116;28;20191;-69
2021/08/07 01:43:55;;;;;;;2.87;1.57;;;14.50;99.90;;;;;;6245127;28;20207;-69
2021/08/07 01:47:09;;;;;;;2.23;1.50;;;14.50;99.90;;;;;;6244489;28;20199;-70
2021/08/07 01:50:24;;;;;;;2.40;1.70;;;14.60;99.90;;;;;;6244659;28;20216;-70
2021/08/07 01:53:29;;;;;;;2.17;1.40;;;14.60;99.90;;;;;;6244770;28;20717;-69
2021/08/07 01:56:44;;;;;;;2.13;1.30;;;14.60;99.90;;;;;;6244679;28;20193;-69
2021/08/07 01:59:51;;;;;;;2.13;1.53;;;14.60;99.90;;;;;;6244647;28;20750;-68
2021/08/07 02:02:55;;;;;;;2.70;1.37;;;14.60;99.90;;;;;;6244584;28;20227;-69
2021/08/07 02:06:04;;;;;;;2.27;1.60;;;14.50;99.90;;;;;;6244269;28;20196;-70
2021/08/07 02:09:08;;;;;;;4.40;1.57;;;14.50;99.90;;;;;;6244346;28;20212;-70
2021/08/07 02:12:20;;;;;;;3.07;1.50;;;14.50;99.90;;;;;;6244509;28;20207;-70
2021/08/07 02:15:29;;;;;;;1.57;1.40;;;14.40;99.90;;;;;;6244288;28;20232;-71
2021/08/07 02:18:41;;;;;;;3.50;1.20;;;14.40;99.90;;;;;;6243863;28;20192;-70
2021/08/07 02:21:45;;;;;;;4.77;1.47;;;14.40;99.90;;;;;;6260805;28;20409;-70
2021/08/07 02:24:49;;;;;;;6.03;1.70;;;14.40;99.90;;;;;;6244203;28;20565;-70
2021/08/07 02:28:12;;;;;;;2.60;1.30;;;14.40;99.90;;;;;;6244069;28;20343;-70
2021/08/07 02:31:18;;;;;;;3.00;1.27;;;14.30;99.90;;;;;;6243929;28;20592;-70
2021/08/07 02:34:22;;;;;;;1.40;1.30;;;14.30;99.90;;;;;;6260769;28;20195;-70
2021/08/07 02:37:25;;;;;;;10.03;1.73;;;14.20;99.90;;;;;;6243923;28;20690;-69
2021/08/07 02:40:29;;;;;;;1.10;1.07;;;14.20;99.90;;;;;;6260651;28;20204;-70
2021/08/07 02:43:37;;;;;;;2.90;1.50;;;14.10;99.90;;;;;;6243981;28;20553;-70
2021/08/07 02:46:40;;;;;;;1.60;1.50;;;14.10;99.90;;;;;;6260497;28;20279;-71
2021/08/07 02:49:47;;;;;;;4.33;1.47;;;14.00;99.90;;;;;;6243602;28;20220;-70
2021/08/07 02:52:50;;;;;;;2.10;1.90;;;14.00;99.90;;;;;;6243948;28;20330;-70
2021/08/07 02:55:56;;;;;;;3.10;1.47;;;14.00;99.90;;;;;;6243730;28;20200;-70
2021/08/07 02:59:02;;;;;;;1.67;1.40;;;14.00;99.90;;;;;;6243859;28;20587;-69
2021/08/07 03:02:09;;;;;;;2.63;1.40;;;14.00;99.90;;;;;;6243724;28;20296;-70
2021/08/07 03:05:15;;;;;;;6.13;1.40;;;13.90;99.90;;;;;;6243827;28;20204;-69
2021/08/07 03:08:23;;;;;;;1.57;1.30;;;13.90;99.90;;;;;;6260243;28;20671;-70
2021/08/07 03:11:26;;;;;;;2.80;1.67;;;13.80;99.90;;;;;;6243965;28;20239;-70
2021/08/07 03:14:37;;;;;;;1.60;1.50;;;13.80;99.90;;;;;;6260008;28;20561;-69
2021/08/07 03:17:41;;;;;;;2.10;1.40;;;13.70;99.90;;;;;;6243483;28;20203;-70
2021/08/07 03:20:43;;;;;;;1.40;1.10;;;13.70;99.90;;;;;;6243710;28;20529;-69
2021/08/07 03:23:47;;;;;;;2.70;1.43;;;13.70;99.90;;;;;;6243324;28;20489;-71
2021/08/07 03:26:51;;;;;;;3.90;1.50;;;13.60;99.90;;;;;;6260073;28;20544;-70
2021/08/07 03:29:56;;;;;;;2.50;1.40;;;13.70;99.90;;;;;;6245348;28;20262;-69
2021/08/07 03:33:00;;;;;;;6.53;1.60;;;13.60;99.90;;;;;;6247863;28;20205;-69
2021/08/07 03:36:03;;;;;;;7.83;1.47;;;13.60;99.90;;;;;;6248939;28;20218;-70
2021/08/07 03:39:06;;;;;;;1.50;1.20;;;13.50;99.90;;;;;;6264186;28;20210;-69
2021/08/07 03:42:12;;;;;;;3.67;1.40;;;13.40;99.90;;;;;;6264230;28;20210;-70
2021/08/07 03:45:14;;;;;;;2.43;1.90;;;13.50;99.90;;;;;;6247609;28;20537;-70
2021/08/07 03:48:20;;;;;;;3.20;1.67;;;13.50;99.90;;;;;;6247153;28;20249;-69
2021/08/07 03:51:25;;;;;;;3.50;1.73;;;13.50;99.90;;;;;;6247628;28;20227;-69
2021/08/07 03:54:27;;;;;;;2.30;1.67;;;13.50;99.90;;;;;;6247550;28;20200;-69
2021/08/07 03:57:45;;;;;;;1.70;1.57;;;13.40;99.90;;;;;;6247331;28;20288;-69
2021/08/07 04:00:48;;;;;;;5.47;1.60;;;13.40;99.90;;;;;;6247296;28;20199;-69
2021/08/07 04:03:58;;;;;;;4.30;1.60;;;13.30;99.90;;;;;;6248469;28;20568;-69
2021/08/07 04:07:13;;;;;;;1.50;1.40;;;13.40;99.90;;;;;;6248842;28;20195;-68
2021/08/07 04:10:21;;;;;;;2.67;1.80;;;13.40;99.90;;;;;;6246516;28;20223;-70
2021/08/07 04:13:24;;;;;;;6.33;1.40;;;13.40;99.90;;;;;;6247773;28;20193;-70
2021/08/07 04:16:29;;;;;;;3.03;1.50;;;13.40;99.90;;;;;;6247442;28;21057;-71
2021/08/07 04:19:38;;;;;;;4.33;1.50;;;13.40;99.90;;;;;;6262789;28;20196;-68
2021/08/07 04:22:50;;;;;;;2.73;1.20;;;13.50;99.90;;;;;;6247894;28;20670;-70
2021/08/07 04:25:53;;;;;;;1.63;1.47;;;13.50;99.90;;;;;;6247650;28;20191;-69
2021/08/07 04:28:56;;;;;;;1.70;1.40;;;13.50;99.90;;;;;;6238435;28;20219;-69
2021/08/07 04:31:58;;;;;;;3.10;1.30;;;13.60;99.90;;;;;;6243318;28;20227;-69
2021/08/07 04:35:01;;;;;;;1.63;1.20;;;13.50;99.90;;;;;;6245966;28;20349;-70
2021/08/07 04:38:04;;;;;;;2.53;1.20;;;13.50;99.90;;;;;;6262905;28;20663;-69
2021/08/07 04:41:10;;;;;;;5.27;1.40;;;13.60;99.90;;;;;;6245639;28;20216;-69
2021/08/07 04:44:13;;;;;;;1.87;1.00;;;13.60;99.90;;;;;;6245835;28;20214;-69
2021/08/07 04:47:15;;;;;;;2.97;1.30;;;13.60;99.90;;;;;;6245562;28;20282;-68
2021/08/07 04:50:18;;;;;;;4.17;1.47;;;13.60;99.90;;;;;;6262175;28;20226;-69
2021/08/07 04:53:21;;;;;;;1.97;1.33;;;13.60;99.90;;;;;;6245723;28;20195;-71
2021/08/07 04:56:28;;;;;;;2.80;1.40;;;13.70;99.90;;;;;;6245966;28;20726;-71
2021/08/07 04:59:31;;;;;;;1.70;1.47;;;13.70;99.90;;;;;;6246345;28;20195;-69
2021/08/07 05:02:34;;;;;;;2.70;1.30;;;13.70;99.90;;;;;;6262023;28;20203;-69
2021/08/07 05:05:37;;;;;;;4.30;1.33;;;13.70;99.90;;;;;;6262342;28;20200;-68
2021/08/07 05:08:39;;;;;;;1.77;1.30;;;13.70;99.90;;;;;;6245604;28;20230;-70
2021/08/07 05:11:42;;;;;;;1.40;1.30;;;13.70;99.90;;;;;;6245174;28;20211;-69
2021/08/07 05:14:44;;;;;;;1.93;1.30;;;13.70;99.90;;;;;;6261355;28;20187;-70
2021/08/07 05:17:50;;;;;;;1.53;1.43;;;13.70;99.90;;;;;;6245091;28;20204;-69
2021/08/07 05:20:53;;;;;;;2.60;1.50;;;13.70;99.90;;;;;;6261575;28;20202;-68
2021/08/07 05:23:56;;;;;;;2.10;1.70;;;13.80;99.90;;;;;;6246394;28;20599;-68
2021/08/07 05:26:59;;;;;;;2.00;1.30;;;13.80;99.90;;;;;;6246015;28;20296;-69
2021/08/07 05:30:08;;;;;;;2.47;1.60;;;13.80;99.90;;;;;;6244411;28;20220;-69
2021/08/07 05:33:18;;;;;;;1.73;1.57;;;13.90;99.90;;;;;;6246048;28;20191;-69
2021/08/07 05:36:21;;;;;;;1.47;1.37;;;13.90;99.90;;;;;;6244584;28;20307;-69
2021/08/07 05:39:23;;;;;;;1.80;1.63;;;14.00;99.90;;;;;;6244312;28;20222;-69
2021/08/07 05:42:26;;;;;;;1.80;1.70;;;14.00;99.90;;;;;;6244416;28;20491;-68
2021/08/07 05:45:28;;;;;;;3.93;1.50;;;14.10;99.90;;;;;;6244400;28;20194;-69
2021/08/07 05:48:33;;;;;;;2.70;1.87;;;14.20;99.90;;;;;;6243917;28;20211;-69
2021/08/07 05:51:35;;;;;;;1.67;1.53;;;14.20;99.90;;;;;;6244966;28;20222;-68
2021/08/07 05:54:39;;;;;;;1.50;1.40;;;14.40;99.90;;;;;;6244191;28;20195;-69
2021/08/07 05:57:42;;;;;;;2.20;1.27;;;14.40;99.90;;;;;;6243839;28;20203;-71
2021/08/07 06:00:45;;;;;;;4.53;1.60;;;14.50;99.90;;;;;;6245374;28;20202;-68
2021/08/07 06:03:48;;;;;;;5.23;1.47;;;14.60;99.90;;;;;;6245174;28;20243;-68
2021/08/07 06:06:51;;;;;;;2.73;1.50;;;14.70;99.90;;;;;;6244001;28;20583;-68
2021/08/07 06:09:54;;;;;;;2.60;1.83;;;14.70;99.90;;;;;;6243688;28;20690;-68
2021/08/07 06:12:56;;;;;;;4.10;1.83;;;14.80;99.90;;;;;;6243691;28;20200;-69
2021/08/07 06:16:00;;;;;;;5.43;1.93;;;14.90;99.90;;;;;;6243810;28;20223;-68
2021/08/07 06:19:03;;;;;;;5.20;1.73;;;15.00;99.90;;;;;;6243671;28;20191;-68
2021/08/07 06:22:06;;;;;;;3.60;1.80;;;15.10;99.90;;;;;;6260287;28;20280;-68
2021/08/07 06:25:10;;;;;;;4.17;2.13;;;15.20;99.90;;;;;;6243742;28;20248;-70
2021/08/07 06:28:13;;;;;;;2.17;1.70;;;15.40;99.90;;;;;;6243391;28;20202;-67
2021/08/07 06:31:20;;;;;;;2.03;1.83;;;15.60;99.90;;;;;;6243554;28;20679;-68
2021/08/07 06:34:23;;;;;;;2.13;1.70;;;15.80;99.90;;;;;;6243393;28;20188;-69
2021/08/07 06:37:25;;;;;;;4.10;1.83;;;16.20;99.90;;;;;;6245025;28;20188;-69
2021/08/07 06:40:28;;;;;;;3.00;1.80;;;16.60;99.90;;;;;;6243488;28;20276;-71
2021/08/07 06:43:31;;;;;;;3.10;1.60;;;17.00;99.90;;;;;;6243565;28;20204;-69
2021/08/07 06:47:06;;;;;;;1.60;1.50;;;17.30;99.90;;;;;;6240189;28;20373;-68
2021/08/07 06:50:09;;;;;;;3.10;1.43;;;17.50;99.90;;;;;;6243297;28;20762;-68
2021/08/07 06:53:12;;;;;;;4.77;1.57;;;17.70;99.90;;;;;;6243382;28;20200;-69
2021/08/07 06:56:15;;;;;;;3.63;1.50;;;17.80;99.90;;;;;;6244460;28;20199;-68
2021/08/07 06:59:19;;;;;;;3.67;1.67;;;17.80;99.90;;;;;;6244293;28;20188;-66
2021/08/07 07:02:22;;;;;;;3.43;1.60;;;17.90;99.90;;;;;;6244635;28;20562;-68
2021/08/07 07:05:29;;;;;;;2.03;1.37;;;18.10;99.90;;;;;;6262626;28;20253;-69
2021/08/07 07:08:32;;;;;;;4.67;1.63;;;18.30;99.90;;;;;;6249052;28;20181;-70
2021/08/07 07:11:37;;;;;;;2.80;1.47;;;18.50;99.90;;;;;;6264012;28;20703;-69
2021/08/07 07:14:40;;;;;;;1.80;1.10;;;18.80;99.90;;;;;;6247661;28;20207;-70
2021/08/07 07:17:43;;;;;;;1.20;1.10;;;19.10;99.90;;;;;;6264094;28;20204;-69
2021/08/07 07:20:45;;;;;;;6.43;1.23;;;19.40;99.90;;;;;;6247648;28;20199;-68
2021/08/07 07:23:48;;;;;;;2.73;1.23;;;19.70;99.90;;;;;;6263916;28;20200;-69
2021/08/07 07:26:50;;;;;;;2.10;1.30;;;19.80;99.90;;;;;;6248761;28;20601;-69
2021/08/07 07:29:52;;;;;;;3.17;1.33;;;20.00;99.90;;;;;;6263457;28;20212;-68
2021/08/07 07:32:55;;;;;;;2.50;1.00;;;20.20;99.90;;;;;;6246990;28;20512;-69
2021/08/07 07:35:58;;;;;;;1.67;1.03;;;20.40;99.90;;;;;;6246948;28;20614;-68
2021/08/07 07:39:01;;;;;;;2.03;1.17;;;20.80;99.90;;;;;;6248168;28;20194;-69
2021/08/07 07:42:04;;;;;;;2.93;0.90;;;21.10;99.90;;;;;;6247489;28;20192;-69
2021/08/07 07:45:08;;;;;;;2.23;1.10;;;21.50;99.90;;;;;;6247028;28;20210;-69
2021/08/07 07:48:13;;;;;;;1.50;1.00;;;21.90;99.90;;;;;;6246784;28;20567;-70
2021/08/07 07:51:16;;;;;;;1.87;1.20;;;22.20;99.90;;;;;;6263203;28;20215;-70
2021/08/07 07:54:19;;;;;;;1.77;1.17;;;22.30;99.90;;;;;;6262814;28;20357;-70
2021/08/07 07:57:21;;;;;;;2.77;1.30;;;22.50;99.90;;;;;;6246697;28;20542;-68
2021/08/07 08:00:25;;;;;;;2.10;1.47;;;22.90;99.90;;;;;;6247880;28;20199;-71
2021/08/07 08:03:31;;;;;;;4.20;1.10;;;23.20;98.70;;;;;;6247914;28;20196;-70
2021/08/07 08:06:34;;;;;;;3.87;3.57;;;23.50;99.50;;;;;;6249221;28;20539;-70
2021/08/07 08:09:36;;;;;;;2.57;1.70;;;23.80;97.30;;;;;;6246919;28;20678;-72
2021/08/07 08:12:39;;;;;;;1.70;1.47;;;24.10;97.70;;;;;;6263243;28;20211;-71
2021/08/07 08:15:42;;;;;;;1.73;1.40;;;24.30;97.20;;;;;;6244878;28;20362;-71
2021/08/07 08:18:45;;;;;;;1.60;1.20;;;24.70;94.40;;;;;;6246074;28;20206;-68
2021/08/07 08:21:48;;;;;;;1.37;1.10;;;24.90;94.30;;;;;;6246911;28;20318;-70
2021/08/07 08:24:52;;;;;;;1.57;1.40;;;24.90;95.20;;;;;;6262693;28;20557;-70
2021/08/07 08:27:56;;;;;;;1.67;1.40;;;24.60;92.90;;;;;;6261918;28;20204;-67
2021/08/07 08:30:59;;;;;;;2.80;1.30;;;24.40;93.80;;;;;;6245473;28;20299;-69
2021/08/07 08:34:02;;;;;;;1.50;1.20;;;24.40;93.80;;;;;;6245010;28;20196;-68
2021/08/07 08:37:07;;;;;;;2.03;1.23;;;24.70;96.00;;;;;;6219367;28;20209;-69
2021/08/07 08:40:09;;;;;;;2.40;1.67;;;24.90;94.80;;;;;;6240818;28;20199;-70
2021/08/07 08:43:15;;;;;;;1.17;1.07;;;25.10;92.60;;;;;;6244586;28;20207;-68
2021/08/07 08:46:20;;;;;;;3.07;1.50;;;25.20;91.50;;;;;;6247105;28;20200;-68
2021/08/07 08:49:24;;;;;;;5.47;1.50;;;25.40;94.90;;;;;;6245816;28;20311;-68
2021/08/07 08:52:29;;;;;;;1.47;1.27;;;25.80;94.40;;;;;;6246789;28;20290;-69
2021/08/07 08:55:33;;;;;;;1.47;1.37;;;25.90;90.80;;;;;;6245542;28;20200;-70
2021/08/07 08:58:38;;;;;;;1.33;1.23;;;26.00;91.80;;;;;;6245570;28;20422;-70
2021/08/07 09:01:41;;;;;;;1.90;1.35;;;26.20;92.50;;;;;;6245345;28;20202;-66
2021/08/07 09:04:49;;;;;;;2.42;1.60;;;26.60;93.60;;;;;;6245785;28;20641;-70
2021/08/07 09:07:51;;;;;;;1.35;1.13;;;26.80;90.10;;;;;;6245110;28;20626;-71
2021/08/07 09:11:17;;;;;;;1.15;1.05;;;27.10;90.70;;;;;;6261502;28;20227;-70
2021/08/07 09:14:25;;;;;;;1.63;1.40;;;27.30;87.80;;;;;;6245674;28;20196;-71
2021/08/07 09:17:32;;;;;;;1.20;1.10;;;27.30;90.60;;;;;;6246285;28;20203;-71
2021/08/07 09:20:45;;;;;;;3.72;1.38;;;27.50;83.30;;;;;;6245940;28;20210;-68
2021/08/07 09:23:47;;;;;;;1.58;1.27;;;27.30;81.30;;;;;;6244660;28;20207;-69
2021/08/07 09:27:01;;;;;;;0.90;0.90;;;27.50;86.00;;;;;;6260222;28;20203;-71
2021/08/07 09:30:25;;;;;;;5.43;1.40;;;28.00;87.10;;;;;;6244423;28;20211;-70
2021/08/07 09:33:35;;;;;;;1.60;1.20;;;28.30;86.00;;;;;;6244828;28;20204;-72
2021/08/07 09:36:47;;;;;;;1.40;1.30;;;28.20;83.60;;;;;;6244161;28;20741;-69
2021/08/07 09:39:50;;;;;;;1.42;1.33;;;28.40;80.50;;;;;;6244333;28;20342;-70
2021/08/07 09:43:00;;;;;;;1.48;1.38;;;28.30;80.40;;;;;;6244179;28;20188;-71
2021/08/07 09:46:04;;;;;;;1.30;1.20;;;28.50;81.20;;;;;;6260799;28;20419;-70
2021/08/07 09:49:07;;;;;;;1.50;1.40;;;28.70;80.60;;;;;;6227918;28;20618;-71
2021/08/07 09:52:10;;;;;;;1.40;1.20;;;28.60;77.00;;;;;;6243970;28;20222;-69
2021/08/07 09:55:13;;;;;;;1.73;1.10;;;28.60;79.30;;;;;;6260785;28;20291;-68
2021/08/07 09:58:22;;;;;;;3.08;1.33;;;28.80;79.50;;;;;;6245362;28;20188;-70
2021/08/07 10:01:28;;;;;;;2.05;1.55;;;28.80;79.00;;;;;;6244090;28;20192;-70
2021/08/07 10:04:39;;;;;;;1.35;0.95;;;28.80;78.10;;;;;;6243714;28;20199;-69
2021/08/07 10:08:03;;;;;;;2.67;1.30;;;29.30;78.50;;;;;;6244074;28;20188;-69
2021/08/07 10:11:20;;;;;;;1.50;1.40;;;29.60;74.30;;;;;;6243932;28;20261;-69
2021/08/07 10:14:23;;;;;;;2.08;1.40;;;29.60;72.10;;;;;;6243809;28;20199;-71
2021/08/07 10:17:26;;;;;;;1.58;1.48;;;29.60;71.70;;;;;;6243466;28;20229;-69
2021/08/07 10:20:31;;;;;;;1.77;1.52;;;29.80;73.30;;;;;;6260045;28;20246;-70
2021/08/07 10:23:34;;;;;;;2.38;1.15;;;30.20;72.10;;;;;;6259942;28;20196;-70
2021/08/07 10:26:38;;;;;;;2.22;1.27;;;30.50;76.30;;;;;;6260323;28;20226;-69
2021/08/07 10:29:45;;;;;;;2.35;1.52;;;30.60;75.10;;;;;;6243671;28;20556;-69
2021/08/07 10:32:49;;;;;;;1.15;0.90;;;30.80;71.20;;;;;;6244700;28;20211;-69
2021/08/07 10:35:55;;;;;;;1.42;1.30;;;30.70;69.70;;;;;;6243328;28;20359;-70
2021/08/07 10:38:58;;;;;;;1.70;1.60;;;30.90;69.20;;;;;;6262330;28;20195;-69
2021/08/07 10:42:03;;;;;;;1.60;1.50;;;31.20;71.40;;;;;;6248398;28;20659;-69
2021/08/07 10:45:10;;;;;;;1.70;1.60;;;30.80;67.70;;;;;;6249966;28;20192;-70
2021/08/07 10:48:43;;;;;;;1.70;1.60;;;30.30;69.00;;;;;;6240575;28;20193;-70
2021/08/07 10:51:48;;;;;;;3.20;1.70;;;29.80;71.10;;;;;;6248301;28;20261;-70
2021/08/07 10:54:53;;;;;;;1.40;1.30;;;30.00;72.20;;;;;;6264719;28;20192;-70
2021/08/07 10:57:55;;;;;;;1.38;1.27;;;30.20;71.30;;;;;;6249351;28;20334;-69
2021/08/07 11:01:33;;;;;;;2.05;1.60;;;30.50;70.60;;;;;;6248950;28;20196;-69
2021/08/07 11:04:53;;;;;;;1.60;1.50;;;30.70;71.50;;;;;;6245934;28;20548;-69
2021/08/07 11:08:18;;;;;;;1.77;1.55;;;30.70;70.10;;;;;;6246201;28;20204;-70
2021/08/07 11:11:27;;;;;;;1.88;1.40;;;30.60;69.10;;;;;;6245160;28;20232;-71
2021/08/07 11:14:35;;;;;;;1.85;1.10;;;30.20;68.20;;;;;;6245819;28;20207;-72
2021/08/07 11:17:41;;;;;;;1.80;1.63;;;30.30;70.00;;;;;;6245136;28;20754;-70
2021/08/07 11:20:44;;;;;;;1.85;1.50;;;30.70;72.50;;;;;;6244507;28;20672;-70
2021/08/07 11:23:46;;;;;;;2.88;1.52;;;30.90;72.30;;;;;;6244670;28;20357;-69
2021/08/07 11:26:49;;;;;;;1.70;1.50;;;31.20;69.80;;;;;;6246100;28;20526;-70
2021/08/07 11:30:24;;;;;;;1.80;1.70;;;31.40;68.20;;;;;;6247475;28;20410;-70
2021/08/07 11:33:41;;;;;;;3.70;1.63;;;31.40;67.40;;;;;;6245946;28;20184;-70
2021/08/07 11:37:17;;;;;;;3.42;1.77;;;31.70;68.70;;;;;;6243898;28;20684;-68
2021/08/07 11:40:19;;;;;;;2.50;1.65;;;31.30;70.20;;;;;;6196289;28;20294;-70
2021/08/07 11:43:24;;;;;;;1.77;1.40;;;31.30;70.00;;;;;;6213145;28;20217;-68
2021/08/07 11:46:32;;;;;;;3.33;1.40;;;31.40;71.50;;;;;;6216678;28;20197;-66
2021/08/07 11:49:35;;;;;;;3.08;1.63;;;31.70;70.50;;;;;;6206479;28;20212;-68
2021/08/07 11:52:37;;;;;;;3.17;1.65;;;32.40;69.40;;;;;;6201691;28;20243;-69
2021/08/07 11:55:40;;;;;;;2.92;1.65;;;33.10;69.90;;;;;;6206525;28;20220;-67
2021/08/07 11:58:46;;;;;;;1.98;1.45;;;33.50;65.70;;;;;;6212763;28;20205;-69
2021/08/07 12:01:49;;;;;;;1.98;1.48;;;33.30;62.50;;;;;;6212869;28;20213;-70
2021/08/07 12:05:10;;;;;;;2.65;1.60;;;33.20;66.40;;;;;;6209734;28;20759;-71
2021/08/07 12:08:12;;;;;;;2.70;1.50;;;32.30;63.90;;;;;;6192506;28;20216;-71
2021/08/07 12:11:17;;;;;;;1.60;1.38;;;32.20;66.30;;;;;;6213050;28;20219;-70
2021/08/07 12:14:27;;;;;;;2.60;1.77;;;32.40;67.20;;;;;;6202271;28;20289;-70
2021/08/07 12:17:29;;;;;;;2.63;1.50;;;33.00;64.90;;;;;;6261330;28;20217;-71
2021/08/07 12:20:44;;;;;;;1.95;1.63;;;33.40;61.50;;;;;;6247371;28;20373;-69
2021/08/07 12:23:52;;;;;;;3.22;1.70;;;33.70;58.90;;;;;;6245873;28;20192;-70
2021/08/07 12:26:58;;;;;;;2.83;1.60;;;33.20;60.40;;;;;;6246967;28;20204;-70
2021/08/07 12:30:07;;;;;;;1.92;1.65;;;32.50;60.50;;;;;;6246212;28;20778;-69
2021/08/07 12:33:14;;;;;;;7.85;2.05;;;31.80;63.10;;;;;;6262745;28;20216;-70
2021/08/07 12:36:22;;;;;;;3.75;1.67;;;31.30;68.30;;;;;;6243801;28;20223;-70
2021/08/07 12:39:26;;;;;;;2.00;1.80;;;31.40;70.40;;;;;;6242370;28;20206;-70
2021/08/07 12:42:30;;;;;;;1.70;1.60;;;32.00;71.10;;;;;;6259705;28;20200;-69
2021/08/07 12:45:33;;;;;;;3.78;1.63;;;32.80;71.20;;;;;;6242941;28;20204;-72
2021/08/07 12:48:59;;;;;;;4.45;1.80;;;33.10;66.60;;;;;;6243284;28;20191;-69
2021/08/07 12:52:06;;;;;;;2.25;1.33;;;32.90;61.30;;;;;;6234011;28;20208;-70
2021/08/07 12:55:09;;;;;;;3.10;1.73;;;33.10;58.50;;;;;;6238007;28;20203;-70
2021/08/07 12:58:21;;;;;;;3.90;1.60;;;33.00;58.90;;;;;;6255773;28;20293;-70
2021/08/07 13:01:24;;;;;;;2.00;1.73;;;32.90;58.30;;;;;;6242795;28;20268;-71
2021/08/07 13:04:50;;;;;;;2.60;1.40;;;33.30;59.40;;;;;;6242883;28;20192;-71
2021/08/07 13:07:52;;;;;;;2.25;1.45;;;33.60;58.70;;;;;;6244310;28;20243;-70
2021/08/07 13:11:08;;;;;;;3.40;1.60;;;33.90;63.70;;;;;;6241136;28;20196;-70
2021/08/07 13:14:14;;;;;;;3.60;1.50;;;33.90;58.20;;;;;;6249773;28;20650;-70
2021/08/07 13:17:41;;;;;;;1.80;1.50;;;33.60;56.90;;;;;;6244929;28;20710;-70
2021/08/07 13:20:46;;;;;;;2.25;1.45;;;33.80;58.80;;;;;;6244486;28;20184;-71
2021/08/07 13:23:51;;;;;;;3.30;1.80;;;33.60;59.20;;;;;;6242980;28;20186;-70
2021/08/07 13:26:54;;;;;;;3.35;1.60;;;33.50;61.60;;;;;;6242395;28;20633;-73
2021/08/07 13:29:59;;;;;;;2.75;1.83;;;33.30;63.60;;;;;;6244900;28;20254;-70
2021/08/07 13:33:04;;;;;;;4.18;1.63;;;33.40;66.00;;;;;;6237395;28;20200;-68
2021/08/07 13:36:07;;;;;;;2.38;1.60;;;33.70;65.90;;;;;;6242945;28;20212;-70
2021/08/07 13:39:10;;;;;;;3.25;1.42;;;34.30;63.50;;;;;;6241919;28;20200;-70
2021/08/07 13:42:16;;;;;;;4.55;1.60;;;34.00;62.90;;;;;;6245185;28;20191;-70
2021/08/07 13:45:18;;;;;;;2.25;1.80;;;33.80;62.30;;;;;;6243581;28;20203;-71
2021/08/07 13:48:21;;;;;;;2.60;1.52;;;34.00;63.00;;;;;;6243482;28;20198;-72
2021/08/07 13:51:24;;;;;;;1.90;1.58;;;34.40;62.20;;;;;;6260830;28;20285;-70
2021/08/07 13:54:26;;;;;;;1.70;1.60;;;34.20;57.50;;;;;;6242721;28;20216;-70
2021/08/07 13:57:29;;;;;;;2.00;1.70;;;33.70;60.30;;;;;;6243830;28;20297;-70
2021/08/07 14:00:31;;;;;;;2.17;1.85;;;33.20;63.90;;;;;;6235109;28;20205;-70
2021/08/07 14:03:33;;;;;;;5.20;1.45;;;33.60;66.50;;;;;;6238638;28;20529;-70
2021/08/07 14:06:38;;;;;;;1.95;1.50;;;34.40;61.70;;;;;;6242547;28;20319;-71
2021/08/07 14:09:41;;;;;;;2.38;1.60;;;35.30;58.40;;;;;;6239678;28;20195;-70
2021/08/07 14:12:43;;;;;;;1.70;1.60;;;36.10;54.10;;;;;;6241837;28;20207;-70
2021/08/07 14:15:46;;;;;;;2.85;1.50;;;36.70;50.90;;;;;;6243461;28;20588;-69
2021/08/07 14:18:48;;;;;;;2.40;1.77;;;37.10;53.40;;;;;;6243742;28;20264;-71
2021/08/07 14:21:52;;;;;;;1.90;1.70;;;37.30;50.00;;;;;;6241578;28;20212;-69
2021/08/07 14:24:56;;;;;;;2.28;1.70;;;37.40;50.80;;;;;;6243666;28;20269;-70
2021/08/07 14:27:59;;;;;;;4.03;1.63;;;37.90;51.60;;;;;;6243528;28;20200;-70
2021/08/07 14:31:02;;;;;;;1.70;1.60;;;38.30;47.80;;;;;;6242261;28;20196;-71
2021/08/07 14:34:05;;;;;;;1.80;1.50;;;38.50;46.90;;;;;;6241934;28;20314;-70
2021/08/07 14:37:07;;;;;;;3.67;1.92;;;38.50;47.40;;;;;;6260080;28;20285;-71
2021/08/07 14:40:10;;;;;;;2.20;1.90;;;36.90;47.10;;;;;;6243516;28;20278;-71
2021/08/07 14:43:12;;;;;;;4.15;1.83;;;35.60;49.60;;;;;;6243811;28;20610;-70
2021/08/07 14:46:15;;;;;;;2.63;1.83;;;35.90;51.30;;;;;;6245424;28;20692;-72
2021/08/07 14:49:17;;;;;;;1.85;1.73;;;36.20;49.90;;;;;;6259867;28;20672;-70
2021/08/07 14:52:20;;;;;;;2.00;1.73;;;36.60;50.30;;;;;;6244877;28;20578;-71
2021/08/07 14:55:22;;;;;;;7.07;2.05;;;36.80;49.40;;;;;;6243537;28;20245;-71
2021/08/07 14:58:25;;;;;;;5.47;2.00;;;36.30;50.40;;;;;;6243568;28;20188;-70
2021/08/07 15:01:27;;;;;;;2.80;2.08;;;35.90;52.60;;;;;;6259881;28;20199;-70
2021/08/07 15:04:29;;;;;;;3.90;2.00;;;35.00;51.80;;;;;;6243258;28;20272;-70
2021/08/07 15:07:32;;;;;;;2.38;1.77;;;34.50;54.20;;;;;;6244758;28;20564;-69
2021/08/07 15:10:35;;;;;;;2.95;2.10;;;34.00;54.30;;;;;;6244497;28;20656;-69
2021/08/07 15:13:37;;;;;;;2.22;1.92;;;33.50;53.20;;;;;;6259812;28;20220;-70
2021/08/07 15:16:39;;;;;;;2.67;2.03;;;33.50;56.20;;;;;;6244337;28;20239;-70
2021/08/07 15:19:42;;;;;;;2.13;1.90;;;34.20;56.70;;;;;;6243292;28;20220;-70
2021/08/07 15:22:44;;;;;;;1.92;1.80;;;34.40;53.60;;;;;;6244060;28;20203;-71
2021/08/07 15:25:47;;;;;;;3.22;2.08;;;34.10;54.20;;;;;;6245105;28;20196;-70
2021/08/07 15:28:50;;;;;;;5.45;2.35;;;34.30;55.80;;;;;;6264206;28;20294;-71
2021/08/07 15:31:53;;;;;;;4.00;1.90;;;34.70;56.10;;;;;;6247527;28;20219;-70
2021/08/07 15:34:55;;;;;;;7.93;1.90;;;34.50;55.80;;;;;;6248938;28;21043;-71
2021/08/07 15:37:57;;;;;;;4.05;2.42;;;34.60;53.90;;;;;;6264135;28;20318;-71
2021/08/07 15:41:00;;;;;;;4.93;2.28;;;34.40;53.00;;;;;;6248712;28;20184;-71
2021/08/07 15:44:03;;;;;;;3.47;2.10;;;34.30;53.50;;;;;;6247688;28;20227;-70
2021/08/07 15:47:06;;;;;;;2.25;1.80;;;34.90;50.90;;;;;;6248498;28;20207;-70
2021/08/07 15:50:10;;;;;;;4.70;2.15;;;35.10;52.30;;;;;;6248514;28;20702;-70
2021/08/07 15:53:14;;;;;;;2.55;2.05;;;34.60;54.60;;;;;;6246953;28;20247;-70
2021/08/07 15:56:16;;;;;;;3.35;2.28;;;33.60;53.10;;;;;;6247421;28;20313;-70
2021/08/07 15:59:20;;;;;;;4.13;1.98;;;33.60;56.20;;;;;;6248182;28;20184;-70
2021/08/07 16:02:22;;;;;;;5.35;2.13;;;33.50;54.20;;;;;;6246813;28;20323;-70
2021/08/07 16:05:25;;;;;;;4.43;2.33;;;33.20;55.70;;;;;;6248222;28;20191;-71
2021/08/07 16:08:28;;;;;;;6.43;2.45;;;32.80;57.70;;;;;;6247086;28;20195;-70